Time;durP1;ratioP1;P1;durP2;ratioP2;P2;SDS_P1;SDS_P2;PMS_P1;PMS_P2;Temp;Humidity;BMP_temperature;BMP_pressure;BME280_temperature;BME280_humidity;BME280_pressure;Samples;Min_cycle;Max_cycle;Signal;HPM_P1;HPM_P2
2022/02/12 00:00:52;;;;;;;;;43.00;40.00;;;;;1.35;82.97;102809.16;5099915;27;46583;-76
2022/02/12 00:03:17;;;;;;;;;39.00;36.25;;;;;1.27;83.54;102795.53;5081246;27;45260;-76
2022/02/12 00:05:43;;;;;;;;;37.00;33.50;;;;;1.30;83.67;102802.41;5100034;27;45228;-75
2022/02/12 00:08:08;;;;;;;;;28.75;26.50;;;;;1.25;83.11;102784.25;5099679;27;45218;-76
2022/02/12 00:10:34;;;;;;;;;30.50;26.75;;;;;1.36;83.74;102802.16;5081283;27;48241;-76
2022/02/12 00:13:00;;;;;;;;;32.25;28.75;;;;;1.26;84.04;102778.94;5099696;27;45452;-76
2022/02/12 00:15:26;;;;;;;;;27.25;26.50;;;;;1.39;83.63;102802.03;5081390;27;45386;-77
2022/02/12 00:17:53;;;;;;;;;27.75;23.25;;;;;1.46;83.69;102802.63;5093492;27;45316;-76
2022/02/12 00:20:19;;;;;;;;;24.25;24.25;;;;;1.38;83.89;102790.69;5079022;28;45330;-76
2022/02/12 00:22:44;;;;;;;;;51.50;41.50;;;;;1.40;83.41;102789.81;5060692;28;45935;-76
2022/02/12 00:25:11;;;;;;;;;66.50;54.00;;;;;1.50;83.62;102807.69;5061040;28;45261;-75
2022/02/12 00:27:37;;;;;;;;;66.50;55.25;;;;;1.50;83.12;102804.22;5078925;28;45587;-76
2022/02/12 00:30:04;;;;;;;;;65.00;52.25;;;;;1.49;83.05;102790.25;5078999;28;45248;-76
2022/02/12 00:32:30;;;;;;;;;63.50;51.25;;;;;1.48;83.01;102790.31;5078809;28;45485;-76
2022/02/12 00:34:56;;;;;;;;;69.25;55.75;;;;;1.52;82.48;102786.66;5079130;28;45288;-76
2022/02/12 00:37:21;;;;;;;;;64.25;50.00;;;;;1.50;82.30;102783.25;5096806;27;45346;-76
2022/02/12 00:39:47;;;;;;;;;61.50;49.75;;;;;1.34;83.06;102757.69;5102792;27;45416;-76
2022/02/12 00:42:12;;;;;;;;;51.00;43.50;;;;;1.52;82.72;102773.53;5102938;27;45275;-75
2022/02/12 00:44:38;;;;;;;;;42.75;37.00;;;;;1.43;82.71;102766.94;5102928;27;45319;-76
2022/02/12 00:47:03;;;;;;;;;36.75;33.50;;;;;1.54;83.03;102773.47;5102869;27;45382;-76
2022/02/12 00:49:29;;;;;;;;;34.75;34.50;;;;;1.48;82.62;102751.88;5102697;27;46429;-76
2022/02/12 00:51:54;;;;;;;;;31.25;27.75;;;;;1.56;82.38;102772.50;5084221;27;45380;-76
2022/02/12 00:54:20;;;;;;;;;34.25;33.75;;;;;1.55;82.97;102769.97;5102630;27;45240;-76
2022/02/12 00:56:45;;;;;;;;;29.00;29.00;;;;;1.45;82.77;102753.75;5102712;27;45230;-76
2022/02/12 00:59:11;;;;;;;;;38.50;34.50;;;;;1.50;82.75;102759.66;5102554;27;45239;-76
2022/02/12 01:01:36;;;;;;;;;48.00;42.50;;;;;1.54;82.51;102763.00;5102614;27;45232;-77
2022/02/12 01:04:03;;;;;;;;;54.50;46.75;;;;;1.56;82.88;102761.19;5102556;27;45170;-76
2022/02/12 01:06:29;;;;;;;;;61.00;49.75;;;;;1.45;82.89;102744.13;5084212;27;47399;-76
2022/02/12 01:08:55;;;;;;;;;59.00;46.50;;;;;1.53;82.96;102762.16;5083707;27;48119;-76
2022/02/12 01:11:20;;;;;;;;;59.00;50.25;;;;;1.43;82.54;102742.50;5083986;27;45354;-76
2022/02/12 01:13:45;;;;;;;;;57.25;49.25;;;;;1.42;82.53;102740.78;5084024;27;45324;-76
2022/02/12 01:16:11;;;;;;;;;55.25;47.25;;;;;1.47;82.81;102747.53;5102312;27;45313;-76
2022/02/12 01:18:36;;;;;;;;;64.25;51.25;;;;;1.45;82.43;102735.41;5102056;27;46107;-75
2022/02/12 01:21:01;;;;;;;;;65.75;50.75;;;;;1.36;82.46;102726.16;5102153;27;45271;-76
2022/02/12 01:23:27;;;;;;;;;55.50;46.50;;;;;1.42;81.93;102738.16;5102292;27;45365;-76
2022/02/12 01:25:52;;;;;;;;;57.50;49.25;;;;;1.34;82.62;102715.75;5102043;27;45337;-76
2022/02/12 01:28:19;;;;;;;;;53.50;46.75;;;;;1.40;82.75;102724.28;5083557;27;47233;-76
2022/02/12 01:30:45;;;;;;;;;54.75;45.75;;;;;1.56;82.61;102737.59;5083794;27;45330;-76
2022/02/12 01:33:12;;;;;;;;;54.00;44.50;;;;;1.56;82.46;102727.94;5083519;27;45293;-76
2022/02/12 01:35:38;;;;;;;;;47.00;42.25;;;;;1.56;82.70;102727.94;5083483;27;47463;-76
2022/02/12 01:38:04;;;;;;;;;54.25;44.50;;;;;1.52;82.61;102721.13;5101628;27;46304;-76
2022/02/12 01:40:31;;;;;;;;;54.75;44.75;;;;;1.59;82.15;102729.59;5101799;27;45389;-76
2022/02/12 01:42:56;;;;;;;;;50.50;42.00;;;;;1.56;82.20;102738.41;5102092;27;45331;-77
2022/02/12 01:45:22;;;;;;;;;51.00;43.00;;;;;1.52;82.63;102731.59;5101832;27;45591;-76
2022/02/12 01:47:48;;;;;;;;;44.50;40.25;;;;;1.41;82.58;102708.50;5083492;27;47234;-76
2022/02/12 01:50:15;;;;;;;;;45.25;41.75;;;;;1.57;81.93;102723.56;5083391;27;45288;-76
2022/02/12 01:52:42;;;;;;;;;51.50;44.00;;;;;1.48;81.92;102715.19;5083007;27;45188;-75
2022/02/12 01:55:08;;;;;;;;;49.75;41.50;;;;;1.57;82.47;102729.66;5101657;27;45540;-76
2022/02/12 01:57:34;;;;;;;;;52.25;44.00;;;;;1.47;82.29;102707.38;5082992;27;47153;-76
2022/02/12 01:59:59;;;;;;;;;45.25;40.00;;;;;1.52;82.37;102700.16;5083391;27;45300;-76
2022/02/12 02:02:25;;;;;;;;;39.00;36.25;;;;;1.43;82.28;102687.47;5083456;27;46056;-76
2022/02/12 02:04:51;;;;;;;;;52.00;43.25;;;;;1.38;82.31;102682.44;5101556;27;45530;-76
2022/02/12 02:07:17;;;;;;;;;49.25;43.00;;;;;1.53;82.06;102708.88;5101382;27;45407;-76
2022/02/12 02:09:44;;;;;;;;;45.50;41.00;;;;;1.50;81.80;102712.50;5101429;27;45399;-76
2022/02/12 02:12:10;;;;;;;;;49.25;42.50;;;;;1.32;82.40;102675.66;5082944;27;45266;-76
2022/02/12 02:14:40;;;;;;;;;47.75;42.25;;;;;1.39;82.52;102686.75;5101431;27;45314;-76
2022/02/12 02:17:07;;;;;;;;;48.00;40.75;;;;;1.39;82.85;102684.13;5082805;27;47067;-76
2022/02/12 02:19:33;;;;;;;;;49.75;43.75;;;;;1.42;82.97;102688.38;5082828;27;45608;-76
2022/02/12 02:22:00;;;;;;;;;50.75;42.25;;;;;1.40;82.90;102677.94;5101370;27;45325;-76
2022/02/12 02:24:27;;;;;;;;;52.50;42.75;;;;;1.50;82.09;102681.88;5100993;27;45290;-76
2022/02/12 02:27:03;;;;;;;;;50.00;42.50;;;;;1.40;82.26;102664.00;5082504;27;47980;-76
2022/02/12 02:29:28;;;;;;;;;47.25;40.00;;;;;1.40;82.56;102664.84;5082622;27;45206;-76
2022/02/12 02:31:55;;;;;;;;;51.00;41.75;;;;;1.45;82.55;102659.41;5082401;27;45319;-76
2022/02/12 02:34:20;;;;;;;;;46.50;41.50;;;;;1.38;82.39;102646.56;5101021;27;45473;-76
2022/02/12 02:36:45;;;;;;;;;51.50;44.00;;;;;1.28;82.03;102631.34;5100835;27;46399;-76
2022/02/12 02:39:11;;;;;;;;;45.75;38.00;;;;;1.28;82.75;102633.94;5082322;27;45305;-76
2022/02/12 02:41:36;;;;;;;;;49.75;42.25;;;;;1.35;82.83;102654.56;5082786;27;45365;-76
2022/02/12 02:44:02;;;;;;;;;52.00;42.25;;;;;1.18;83.07;102618.63;5082553;27;46107;-76
2022/02/12 02:46:27;;;;;;;;;51.00;43.00;;;;;1.38;83.12;102643.94;5082458;27;47016;-77
2022/02/12 02:48:52;;;;;;;;;48.25;41.75;;;;;1.27;82.47;102614.75;5100915;27;45345;-76
2022/02/12 02:56:46;;;;;;;;;52.50;41.25;;;;;1.46;83.07;102624.41;5100555;27;45442;-76
2022/02/12 02:59:11;;;;;;;;;38.50;36.75;;;;;1.32;83.35;102594.44;5100610;27;45366;-76
2022/02/12 03:01:37;;;;;;;;;30.50;28.75;;;;;1.28;83.19;102594.66;5081673;27;45330;-76
2022/02/12 03:04:03;;;;;;;;;26.25;24.75;;;;;1.30;83.54;102598.91;5100581;27;45282;-77
2022/02/12 03:06:30;;;;;;;;;16.00;16.00;;;;;1.20;83.53;102593.19;5099030;27;48375;-75
2022/02/12 03:08:56;;;;;;;;;24.50;21.50;;;;;1.24;84.37;102593.91;5099039;27;45245;-76
2022/02/12 03:11:23;;;;;;;;;29.75;24.25;;;;;1.23;84.07;102587.81;5081951;27;45360;-75
2022/02/12 03:13:50;;;;;;;;;21.50;20.75;;;;;1.39;84.51;102605.50;5100189;27;45366;-76
2022/02/12 03:16:16;;;;;;;;;12.50;12.50;;;;;1.08;84.66;102550.06;5098822;27;47151;-76
2022/02/12 03:18:44;;;;;;;;;21.75;21.25;;;;;1.38;84.33;102586.31;5100093;27;45468;-76
2022/02/12 03:21:10;;;;;;;;;21.50;21.00;;;;;1.41;83.76;102594.94;5082174;27;45345;-76
2022/02/12 03:23:36;;;;;;;;;20.75;20.00;;;;;1.44;84.24;102584.34;5081690;27;46116;-76
2022/02/12 03:26:02;;;;;;;;;29.25;23.75;;;;;1.57;84.10;102595.97;5099997;27;45227;-76
2022/02/12 03:28:27;;;;;;;;;33.25;31.00;;;;;1.59;83.73;102582.81;5100103;27;45348;-76
2022/02/12 03:30:53;;;;;;;;;29.25;27.00;;;;;1.30;83.84;102535.16;5081886;27;45404;-76
2022/02/12 03:33:18;;;;;;;;;21.25;17.75;;;;;1.62;83.41;102586.13;5100168;27;45309;-76
2022/02/12 03:35:46;;;;;;;;;19.50;17.50;;;;;1.62;83.94;102580.03;5081572;27;47935;-76
2022/02/12 03:38:32;;;;;;;;;16.00;16.00;;;;;1.62;83.41;102573.00;5081593;27;45931;-76
2022/02/12 03:41:03;;;;;;;;;18.50;17.25;;;;;1.51;82.84;102546.44;5081692;27;45273;-75
2022/02/12 03:43:33;;;;;;;;;17.50;16.50;;;;;1.48;83.99;102550.06;5100058;27;45324;-76
2022/02/12 03:45:59;;;;;;;;;21.75;20.25;;;;;1.56;83.72;102568.03;5081595;27;47449;-76
2022/02/12 03:48:26;;;;;;;;;18.25;17.50;;;;;1.59;83.22;102567.91;5100021;27;45218;-76
2022/02/12 03:50:52;;;;;;;;;18.75;17.50;;;;;1.54;83.34;102559.41;5100226;27;45306;-76
2022/02/12 03:53:17;;;;;;;;;21.25;17.50;;;;;1.47;83.33;102558.00;5081237;27;45929;-76
2022/02/12 03:55:43;;;;;;;;;21.75;19.00;;;;;1.42;83.55;102536.38;5099782;27;45238;-76
2022/02/12 03:58:10;;;;;;;;;17.75;15.25;;;;;1.60;83.62;102559.13;5100040;27;45254;-76
2022/02/12 04:00:37;;;;;;;;;18.50;15.50;;;;;1.32;83.12;102513.19;5081735;27;45391;-76
2022/02/12 04:03:03;;;;;;;;;14.75;12.75;;;;;1.45;83.05;102537.09;5099780;27;45542;-76
2022/02/12 04:05:30;;;;;;;;;21.75;18.50;;;;;1.59;83.15;102564.44;5099740;27;46298;-76
2022/02/12 04:07:56;;;;;;;;;33.75;31.25;;;;;1.52;82.92;102548.13;5099507;27;45244;-76
2022/02/12 04:10:22;;;;;;;;;30.00;30.00;;;;;1.52;82.80;102545.50;5099762;27;45206;-75
2022/02/12 04:12:53;;;;;;;;;32.75;31.25;;;;;1.51;83.03;102539.44;5101121;27;45254;-76
2022/02/12 04:15:20;;;;;;;;;27.50;25.75;;;;;1.55;83.30;102545.38;5103186;27;45355;-76
2022/02/12 04:17:45;;;;;;;;;31.25;31.25;;;;;1.48;82.43;102529.09;5097925;27;45278;-75
2022/02/12 04:20:14;;;;;;;;;30.25;28.00;;;;;1.57;82.78;102540.06;5064420;28;45255;-76
2022/02/12 04:22:41;;;;;;;;;25.50;24.75;;;;;1.53;82.20;102528.88;5082548;28;45298;-76
2022/02/12 04:25:08;;;;;;;;;20.25;18.75;;;;;1.50;82.74;102531.66;5082597;28;45358;-76
2022/02/12 04:27:34;;;;;;;;;18.75;18.75;;;;;1.48;82.22;102523.84;5082225;28;45620;-76
2022/02/12 04:30:00;;;;;;;;;21.00;19.00;;;;;1.39;82.36;102513.78;5082731;28;45303;-76
2022/02/12 04:32:25;;;;;;;;;23.50;20.50;;;;;1.19;82.71;102494.56;5064148;28;46428;-76
2022/02/12 04:34:53;;;;;;;;;16.75;16.75;;;;;1.29;82.33;102504.66;5082653;28;46519;-76
2022/02/12 04:37:19;;;;;;;;;17.75;17.75;;;;;1.25;82.81;102506.53;5099259;27;45343;-76
2022/02/12 04:39:45;;;;;;;;;16.75;16.75;;;;;1.31;83.10;102508.88;5102997;27;45276;-76
2022/02/12 04:42:16;;;;;;;;;21.25;18.25;;;;;1.28;82.68;102501.16;5102804;27;45360;-76
2022/02/12 04:44:43;;;;;;;;;16.50;14.25;;;;;1.28;82.51;102513.44;5084399;27;48270;-75
2022/02/12 04:47:09;;;;;;;;;19.50;18.25;;;;;1.24;82.88;102512.72;5084366;27;45243;-76
2022/02/12 04:49:36;;;;;;;;;21.25;21.00;;;;;1.22;83.04;102504.06;5084415;27;45303;-76
2022/02/12 04:52:03;;;;;;;;;17.50;17.00;;;;;1.23;83.19;102496.13;5102647;27;45260;-76
2022/02/12 04:54:29;;;;;;;;;20.50;17.75;;;;;1.16;82.83;102481.63;5102513;27;46327;-75
2022/02/12 04:56:55;;;;;;;;;19.50;17.25;;;;;1.16;82.76;102483.41;5102517;27;45294;-76
2022/02/12 04:59:20;;;;;;;;;18.25;16.25;;;;;1.16;83.16;102479.00;5084410;27;45235;-77
2022/02/12 05:01:46;;;;;;;;;15.00;15.00;;;;;1.11;82.64;102473.97;5102604;27;45469;-76
2022/02/12 05:04:11;;;;;;;;;20.50;19.50;;;;;1.19;82.84;102501.56;5084082;27;47379;-76
2022/02/12 05:06:37;;;;;;;;;14.50;14.50;;;;;1.06;83.14;102481.19;5102625;27;45453;-76
2022/02/12 05:09:03;;;;;;;;;19.00;18.50;;;;;1.07;82.75;102484.63;5083853;27;45198;-76
2022/02/12 05:11:29;;;;;;;;;21.25;16.25;;;;;1.04;82.85;102474.31;5102478;27;45460;-76
2022/02/12 05:13:54;;;;;;;;;18.25;14.25;;;;;1.10;83.00;102479.25;5102225;27;45343;-76
2022/02/12 05:16:20;;;;;;;;;19.75;16.75;;;;;1.16;82.74;102493.88;5084129;27;45624;-76
2022/02/12 05:18:45;;;;;;;;;15.75;15.75;;;;;1.10;83.14;102490.59;5102406;27;45371;-75
2022/02/12 05:21:10;;;;;;;;;12.50;11.25;;;;;1.07;82.94;102492.50;5102286;27;45607;-76
2022/02/12 05:23:36;;;;;;;;;18.00;16.50;;;;;1.06;82.85;102490.81;5083153;27;47042;-76
2022/02/12 05:26:02;;;;;;;;;17.25;16.50;;;;;0.96;82.80;102479.91;5083527;27;46058;-76
2022/02/12 05:28:27;;;;;;;;;15.25;15.25;;;;;0.94;83.20;102471.25;5102572;27;45333;-76
2022/02/12 05:30:53;;;;;;;;;16.00;16.00;;;;;0.80;83.06;102435.19;5102144;27;45573;-77
2022/02/12 05:33:18;;;;;;;;;15.75;14.75;;;;;0.92;82.69;102458.22;5101937;27;45550;-78
2022/02/12 05:35:44;;;;;;;;;15.00;14.75;;;;;0.97;83.31;102476.34;5083609;27;45951;-78
2022/02/12 05:38:09;;;;;;;;;16.00;13.50;;;;;0.84;83.05;102453.31;5083425;27;45304;-79
2022/02/12 05:40:34;;;;;;;;;18.25;16.00;;;;;0.85;82.82;102449.81;5101906;27;45306;-78
2022/02/12 05:43:02;;;;;;;;;18.75;13.50;;;;;0.78;82.75;102440.50;5101959;27;45500;-77
2022/02/12 05:45:27;;;;;;;;;12.00;12.00;;;;;0.83;83.42;102448.16;5101824;27;45221;-77
2022/02/12 05:47:52;;;;;;;;;15.50;15.50;;;;;0.74;82.78;102438.94;5101972;27;45772;-77
2022/02/12 05:50:18;;;;;;;;;15.75;15.25;;;;;0.73;82.63;102445.97;5083317;27;45881;-77
2022/02/12 05:52:43;;;;;;;;;15.25;11.25;;;;;0.71;83.27;102447.78;5101538;27;45279;-77
2022/02/12 05:55:08;;;;;;;;;16.25;15.75;;;;;0.63;83.41;102432.41;5083161;27;45324;-77
2022/02/12 05:57:34;;;;;;;;;19.25;16.50;;;;;0.65;83.10;102440.19;5101893;27;45294;-78
2022/02/12 05:59:59;;;;;;;;;20.75;20.00;;;;;0.54;83.40;102417.09;5083173;27;47274;-78
2022/02/12 06:02:24;;;;;;;;;18.00;18.00;;;;;0.60;83.26;102422.06;5101584;27;45299;-77
2022/02/12 06:04:50;;;;;;;;;19.75;18.75;;;;;0.70;82.97;102440.00;5083283;27;45930;-77
2022/02/12 06:07:15;;;;;;;;;20.25;16.00;;;;;0.45;82.80;102393.97;5101554;27;45357;-78
2022/02/12 06:09:40;;;;;;;;;20.00;18.50;;;;;0.56;82.61;102423.13;5082861;27;47076;-77
2022/02/12 06:12:06;;;;;;;;;20.75;19.50;;;;;0.61;82.88;102431.66;5082927;27;47176;-76
2022/02/12 06:14:32;;;;;;;;;23.50;23.25;;;;;0.51;82.82;102425.13;5082894;27;46165;-77
2022/02/12 06:16:59;;;;;;;;;19.75;19.25;;;;;0.49;82.95;102429.56;5101616;27;45325;-75
2022/02/12 06:19:25;;;;;;;;;55.75;47.50;;;;;0.33;82.96;102424.97;5101186;27;45243;-76
2022/02/12 06:21:51;;;;;;;;;40.00;37.00;;;;;0.34;83.33;102431.91;5101249;27;46356;-77
2022/02/12 06:24:16;;;;;;;;;33.00;29.00;;;;;0.43;83.16;102441.13;5082544;27;45809;-78
2022/02/12 06:26:46;;;;;;;;;29.75;25.75;;;;;0.41;83.06;102439.47;5101309;27;45305;-77
2022/02/12 06:29:12;;;;;;;;;27.00;25.50;;;;;0.45;83.34;102444.53;5082868;27;46120;-78
2022/02/12 06:31:37;;;;;;;;;22.25;20.50;;;;;0.40;83.67;102433.41;5100996;27;45471;-78
2022/02/12 06:34:03;;;;;;;;;29.25;27.50;;;;;0.43;83.21;102432.44;5100901;27;45295;-78
2022/02/12 06:36:28;;;;;;;;;29.00;28.00;;;;;0.34;83.25;102408.38;5081746;27;45301;-78
2022/02/12 06:38:53;;;;;;;;;25.25;23.25;;;;;0.49;82.79;102432.16;5100837;27;45344;-77
2022/02/12 06:41:19;;;;;;;;;35.50;31.25;;;;;0.47;83.03;102432.22;5100993;27;45615;-77
2022/02/12 06:43:44;;;;;;;;;37.00;31.50;;;;;0.35;83.33;102414.44;5082694;27;45914;-76
2022/02/12 06:46:10;;;;;;;;;38.75;36.25;;;;;0.33;83.57;102411.88;5101194;27;45302;-77
2022/02/12 06:48:36;;;;;;;;;35.50;34.25;;;;;0.41;83.49;102421.16;5101436;27;45276;-77
2022/02/12 06:51:01;;;;;;;;;45.00;38.75;;;;;0.41;83.80;102406.34;5100806;27;46049;-77
2022/02/12 06:53:27;;;;;;;;;40.00;36.50;;;;;0.29;83.99;102385.91;5100617;27;45283;-77
2022/02/12 06:55:53;;;;;;;;;41.50;38.75;;;;;0.49;84.09;102404.25;5100958;27;45219;-77
2022/02/12 06:58:19;;;;;;;;;38.75;35.50;;;;;0.45;84.33;102407.06;5100824;27;45565;-77
2022/02/12 07:00:44;;;;;;;;;36.00;30.75;;;;;0.39;84.27;102396.84;5100688;27;46388;-78
2022/02/12 07:03:09;;;;;;;;;37.75;35.00;;;;;0.40;84.20;102396.78;5082326;27;45294;-76
2022/02/12 07:05:35;;;;;;;;;41.50;37.25;;;;;0.48;84.18;102401.69;5100908;27;45279;-76
2022/02/12 07:08:00;;;;;;;;;41.25;38.00;;;;;0.44;84.21;102405.34;5100315;27;45370;-76
2022/02/12 07:10:26;;;;;;;;;43.00;38.25;;;;;0.36;83.99;102382.97;5081586;27;47055;-78
2022/02/12 07:12:51;;;;;;;;;35.25;34.25;;;;;0.45;83.69;102394.81;5099923;27;45489;-78
2022/02/12 07:15:17;;;;;;;;;41.75;38.25;;;;;0.51;84.23;102406.81;5100046;27;46003;-78
2022/02/12 07:17:42;;;;;;;;;41.25;38.25;;;;;0.30;84.48;102366.72;5099990;27;45518;-77
2022/02/12 07:20:09;;;;;;;;;38.50;37.00;;;;;0.54;83.95;102406.63;5081842;27;47907;-78
2022/02/12 07:22:35;;;;;;;;;42.25;37.00;;;;;0.44;84.25;102390.50;5081829;27;45597;-78
2022/02/12 07:25:00;;;;;;;;;44.75;41.50;;;;;0.34;83.80;102383.97;5081906;27;45266;-78
2022/02/12 07:27:25;;;;;;;;;45.00;41.00;;;;;0.37;84.15;102392.56;5099953;27;45243;-78
2022/02/12 07:29:51;;;;;;;;;42.75;39.25;;;;;0.39;83.46;102402.09;5100415;27;45242;-78
2022/02/12 07:32:16;;;;;;;;;40.75;36.75;;;;;0.36;83.82;102403.91;5099044;27;45219;-78
2022/02/12 07:34:41;;;;;;;;;45.00;39.75;;;;;0.22;84.08;102386.22;5078157;27;45477;-78
2022/02/12 07:37:07;;;;;;;;;45.25;38.75;;;;;0.27;83.84;102396.44;5081587;27;47027;-77
2022/02/12 07:39:32;;;;;;;;;55.25;40.75;;;;;0.21;83.80;102394.13;5100571;27;46744;-79
2022/02/12 07:41:58;;;;;;;;;47.25;41.75;;;;;0.23;83.84;102402.72;5103239;27;45327;-79
2022/02/12 07:44:24;;;;;;;;;41.25;37.50;;;;;0.17;84.20;102398.63;5103875;27;45181;-79
2022/02/12 07:46:49;;;;;;;;;45.00;39.00;;;;;0.21;84.41;102399.34;5085974;27;47284;-79
2022/02/12 07:49:15;;;;;;;;;39.25;37.50;;;;;0.14;84.26;102387.44;5106960;27;46117;-79
2022/02/12 07:51:40;;;;;;;;;50.00;42.50;;;;;0.17;84.32;102395.16;5106824;27;45188;-80
2022/02/12 07:54:05;;;;;;;;;54.75;44.50;;;;;0.10;84.50;102389.34;5086610;27;45386;-79
2022/02/12 07:56:31;;;;;;;;;51.75;44.00;;;;;0.28;84.15;102419.09;5105743;27;45415;-80
2022/02/12 07:58:57;;;;;;;;;58.50;48.25;;;;;0.30;83.96;102419.03;5105445;27;46604;-79
2022/02/12 08:01:23;;;;;;;;;43.75;40.00;;;;;0.23;83.79;102419.28;5085701;27;45761;-78
2022/02/12 08:03:48;;;;;;;;;49.25;40.00;;;;;0.21;84.74;102402.78;5104218;27;45310;-78
2022/02/12 08:08:57;;;;;;;;;32.25;31.00;;;;;0.44;84.62;102421.91;5101309;27;45337;-78
2022/02/12 08:11:25;;;;;;;;;28.00;27.75;;;;;0.47;84.96;102416.53;5102676;27;45347;-78
2022/02/12 08:13:51;;;;;;;;;35.00;33.00;;;;;0.49;85.25;102411.25;5109922;27;45377;-81
2022/02/12 08:16:17;;;;;;;;;25.25;25.25;;;;;0.43;84.83;102388.81;5091815;27;45445;-79
2022/02/12 08:18:43;;;;;;;;;27.75;23.50;;;;;0.62;85.00;102412.41;5106061;27;46072;-79
2022/02/12 08:21:08;;;;;;;;;23.75;19.50;;;;;0.65;84.51;102414.03;5087205;27;45252;-79
2022/02/12 08:23:33;;;;;;;;;23.75;21.75;;;;;0.62;84.63;102398.47;5087982;27;45221;-79
2022/02/12 08:25:59;;;;;;;;;26.00;20.75;;;;;0.75;84.71;102409.25;5087019;27;45964;-79
2022/02/12 08:28:24;;;;;;;;;23.00;21.00;;;;;0.75;85.21;102393.53;5105654;27;46087;-78
2022/02/12 08:30:49;;;;;;;;;27.00;23.25;;;;;0.97;85.10;102408.28;5086465;27;45251;-79
2022/02/12 08:33:15;;;;;;;;;20.75;20.75;;;;;0.99;85.34;102404.66;5106153;27;45238;-79
2022/02/12 08:35:40;;;;;;;;;22.25;22.00;;;;;1.09;84.35;102402.47;5105613;27;45486;-78
2022/02/12 08:38:06;;;;;;;;;23.50;20.75;;;;;1.19;84.23;102407.28;5086117;27;47505;-79
2022/02/12 08:40:32;;;;;;;;;19.75;18.75;;;;;1.20;84.68;102390.66;5086842;27;45653;-79
2022/02/12 08:42:58;;;;;;;;;20.00;19.00;;;;;1.38;84.49;102409.91;5086792;27;45276;-78
2022/02/12 08:45:24;;;;;;;;;20.50;17.00;;;;;1.43;84.08;102404.44;5086946;27;46307;-78
2022/02/12 08:47:50;;;;;;;;;18.75;16.25;;;;;1.48;84.35;102405.06;5105577;27;45227;-79
2022/02/12 08:50:15;;;;;;;;;20.50;19.75;;;;;1.33;84.08;102377.81;5105032;27;45152;-78
2022/02/12 08:52:41;;;;;;;;;18.50;18.00;;;;;1.43;84.29;102386.94;5104682;27;45283;-78
2022/02/12 08:55:08;;;;;;;;;16.25;15.75;;;;;1.50;83.55;102388.34;5104824;27;45402;-78
2022/02/12 08:57:34;;;;;;;;;16.00;14.75;;;;;1.49;83.38;102377.94;5086764;27;46963;-78
2022/02/12 08:59:59;;;;;;;;;12.75;12.00;;;;;1.56;84.17;102381.94;5087104;27;45629;-79
2022/02/12 09:02:25;;;;;;;;;15.00;15.00;;;;;1.70;84.40;102397.00;5127888;27;45709;-77
2022/02/12 09:04:50;;;;;;;;;11.25;11.25;;;;;1.78;83.44;102394.03;5128899;27;45292;-80
2022/02/12 09:07:16;;;;;;;;;17.25;15.00;;;;;1.72;83.95;102361.09;5099016;27;45764;-80
2022/02/12 09:09:42;;;;;;;;;16.00;16.00;;;;;1.71;83.42;102351.50;5098852;27;45404;-79
2022/02/12 09:12:09;;;;;;;;;20.50;15.75;;;;;1.94;83.32;102377.53;5083411;27;45372;-80
2022/02/12 09:14:35;;;;;;;;;21.50;18.00;;;;;2.05;84.14;102384.84;5101706;27;45298;-79
2022/02/12 09:17:00;;;;;;;;;17.00;14.25;;;;;2.14;83.79;102385.25;5082384;27;46993;-79
2022/02/12 09:19:27;;;;;;;;;12.00;11.75;;;;;2.20;83.05;102388.47;5104436;27;45225;-79
2022/02/12 09:21:52;;;;;;;;;11.75;11.25;;;;;2.06;82.94;102348.03;5081738;27;45336;-79
2022/02/12 09:24:17;;;;;;;;;14.25;12.50;;;;;2.22;82.18;102363.84;5101490;27;45263;-77
2022/02/12 09:26:43;;;;;;;;;14.00;12.25;;;;;2.40;82.74;102376.97;5083178;27;47280;-76
2022/02/12 09:29:08;;;;;;;;;15.25;11.25;;;;;2.41;82.59;102373.41;5083667;27;45387;-78
2022/02/12 09:31:34;;;;;;;;;12.75;12.25;;;;;2.50;82.72;102361.56;5098588;27;45140;-78
2022/02/12 09:34:00;;;;;;;;;12.50;11.25;;;;;2.50;82.15;102359.78;5099660;27;46022;-77
2022/02/12 09:36:26;;;;;;;;;14.25;14.00;;;;;2.57;81.29;102372.59;5083494;27;47538;-76
2022/02/12 09:38:51;;;;;;;;;12.50;12.50;;;;;2.57;81.56;102360.31;5107362;27;45451;-78
2022/02/12 09:41:23;;;;;;;;;14.50;13.25;;;;;2.60;82.07;102347.00;5122723;27;45298;-76
2022/02/12 09:43:54;;;;;;;;;14.00;13.00;;;;;2.68;81.65;102343.13;5122661;27;45283;-77
2022/02/12 09:46:46;;;;;;;;;14.50;12.00;;;;;2.89;80.94;102359.50;5089653;27;45532;-80
2022/02/12 09:49:12;;;;;;;;;12.50;12.00;;;;;2.90;81.29;102348.06;5089710;27;45373;-79
2022/02/12 09:51:40;;;;;;;;;16.75;14.75;;;;;2.90;81.08;102335.78;5090450;27;45398;-78
2022/02/12 09:54:05;;;;;;;;;11.25;11.25;;;;;2.98;80.94;102338.00;5099663;27;45252;-80
2022/02/12 09:56:30;;;;;;;;;15.25;12.00;;;;;3.18;80.31;102350.94;5097403;27;45838;-77
2022/02/12 09:58:56;;;;;;;;;12.75;12.75;;;;;3.22;80.50;102345.44;5092582;27;45950;-77
2022/02/12 10:01:21;;;;;;;;;11.50;11.50;;;;;3.27;80.24;102339.94;5091893;27;45416;-75
2022/02/12 10:03:49;;;;;;;;;12.00;12.00;;;;;3.32;79.63;102334.41;5081797;27;45327;-75
2022/02/12 10:06:15;;;;;;;;;16.50;13.00;;;;;3.38;79.59;102334.91;5089392;27;45308;-76
2022/02/12 10:08:41;;;;;;;;;10.75;10.75;;;;;3.36;79.32;102315.75;5092257;27;45595;-75
2022/02/12 10:11:16;;;;;;;;;13.75;12.25;;;;;3.38;79.84;102307.78;5089580;27;45457;-76
2022/02/12 10:13:42;;;;;;;;;13.75;13.75;;;;;3.61;78.80;102334.50;5081002;27;45531;-76
2022/02/12 10:16:08;;;;;;;;;16.50;14.50;;;;;3.73;78.83;102346.09;5091835;27;46291;-75
2022/02/12 10:18:38;;;;;;;;;13.25;11.25;;;;;3.79;79.53;102345.75;5092502;27;45273;-76
2022/02/12 10:21:04;;;;;;;;;11.25;11.25;;;;;3.85;78.09;102340.13;5075560;27;47528;-76
2022/02/12 10:23:31;;;;;;;;;15.50;13.75;;;;;3.77;79.70;102322.16;5095616;27;45381;-76
2022/02/12 10:26:03;;;;;;;;;13.50;12.00;;;;;3.94;78.35;102328.22;5089599;27;46251;-76
2022/02/12 10:28:30;;;;;;;;;13.75;10.50;;;;;3.96;77.07;102314.97;5071597;27;45358;-76
2022/02/12 10:30:57;;;;;;;;;13.00;11.25;;;;;4.04;77.74;102312.72;5089770;27;45564;-76
2022/02/12 10:33:25;;;;;;;;;9.00;9.00;;;;;3.94;76.69;102286.13;5096497;27;45476;-75
2022/02/12 10:35:59;;;;;;;;;12.67;9.67;;;;;4.03;78.11;102284.72;5076453;27;47032;-75
2022/02/12 10:38:26;;;;;;;;;9.25;9.00;;;;;4.16;77.96;102295.38;5089676;27;45994;-75
2022/02/12 10:41:12;;;;;;;;;12.00;10.75;;;;;4.25;77.88;102288.69;5098287;27;45308;-74
2022/02/12 10:43:39;;;;;;;;;10.00;9.67;;;;;4.26;77.18;102274.56;5114408;27;45465;-76
2022/02/12 10:46:06;;;;;;;;;8.67;7.67;;;;;4.36;77.39;102274.84;5091158;27;45967;-78
2022/02/12 10:48:35;;;;;;;;;13.75;11.00;;;;;4.44;76.24;102269.09;5095901;27;45506;-76
2022/02/12 10:51:02;;;;;;;;;11.33;9.00;;;;;4.45;77.18;102265.53;5095245;27;45417;-75
2022/02/12 10:53:28;;;;;;;;;12.67;10.00;;;;;4.47;75.38;102264.50;5102034;27;46477;-76
2022/02/12 10:56:12;;;;;;;;;8.33;7.33;;;;;4.48;75.31;102250.38;5097580;27;47326;-76
2022/02/12 10:58:39;;;;;;;;;8.00;8.00;;;;;4.62;74.22;102254.78;5080228;27;45979;-75
2022/02/12 11:01:05;;;;;;;;;7.00;7.00;;;;;4.77;74.26;102271.41;5096501;27;45452;-77
2022/02/12 11:03:33;;;;;;;;;8.00;7.67;;;;;4.80;74.77;102255.41;5095947;27;45507;-77
2022/02/12 11:05:59;;;;;;;;;7.67;7.67;;;;;4.87;74.36;102250.56;5076577;27;47197;-77
2022/02/12 11:08:25;;;;;;;;;7.67;7.00;;;;;4.93;73.37;102246.69;5074513;27;46586;-76
2022/02/12 11:10:52;;;;;;;;;10.67;6.67;;;;;5.12;74.54;102261.31;5096740;27;45441;-76
2022/02/12 11:13:21;;;;;;;;;9.67;8.67;;;;;5.03;74.36;102221.41;5094983;27;46324;-76
2022/02/12 11:15:49;;;;;;;;;6.00;6.00;;;;;5.16;73.86;102234.66;5097040;27;45444;-77
2022/02/12 11:18:19;;;;;;;;;5.67;5.00;;;;;5.33;73.96;102245.03;5097881;27;45438;-78
2022/02/12 11:20:46;;;;;;;;;6.67;5.67;;;;;5.24;71.77;102228.03;5087679;27;45290;-78
2022/02/12 11:23:21;;;;;;;;;6.33;5.67;;;;;5.40;71.64;102247.16;5094521;27;45358;-78